Time;durP1;ratioP1;P1;durP2;ratioP2;P2;SDS_P1;SDS_P2;PMS_P1;PMS_P2;Temp;Humidity;BMP_temperature;BMP_pressure;BME280_temperature;BME280_humidity;BME280_pressure;Samples;Min_cycle;Max_cycle;Signal;HPM_P1;HPM_P2
2023/05/29 00:01:00;;;;;;;12.10;7.13;;;;;;;;;;4956732;28;20047;-76
2023/05/29 00:03:26;;;;;;;11.73;6.30;;;;;;;;;;4961757;28;20050;-77
2023/05/29 00:05:53;;;;;;;11.63;6.45;;;;;;;;;;4976079;28;20054;-77
2023/05/29 00:08:20;;;;;;;10.60;6.72;;;;;;;;;;4975914;28;20046;-80
2023/05/29 00:10:46;;;;;;;11.48;6.55;;;;;;;;;;4975394;28;20133;-78
2023/05/29 00:13:14;;;;;;;9.18;6.22;;;;;;;;;;5018146;22;20070;-55
2023/05/29 00:15:41;;;;;;;9.68;6.50;;;;;;;;;;4994444;28;20054;-55
2023/05/29 00:18:08;;;;;;;11.52;6.95;;;;;;;;;;4993967;28;20058;-55
2023/05/29 00:20:35;;;;;;;10.57;7.28;;;;;;;;;;4989640;28;20415;-56
2023/05/29 00:23:04;;;;;;;13.15;7.38;;;;;;;;;;4974940;28;20118;-50
2023/05/29 00:25:31;;;;;;;12.48;6.50;;;;;;;;;;4974635;28;20061;-49
2023/05/29 00:27:58;;;;;;;12.85;7.57;;;;;;;;;;4974362;28;20057;-55
2023/05/29 00:30:26;;;;;;;12.57;7.00;;;;;;;;;;4974431;28;20105;-51
2023/05/29 00:32:53;;;;;;;12.02;6.65;;;;;;;;;;4974233;28;20101;-51
2023/05/29 00:35:20;;;;;;;12.25;6.80;;;;;;;;;;4974503;28;20142;-55
2023/05/29 00:37:47;;;;;;;11.32;6.80;;;;;;;;;;4974253;28;20047;-55
2023/05/29 00:40:14;;;;;;;11.32;7.05;;;;;;;;;;4974259;28;20058;-55
2023/05/29 00:42:41;;;;;;;12.60;7.53;;;;;;;;;;4974142;28;20058;-55
2023/05/29 00:45:08;;;;;;;11.93;7.07;;;;;;;;;;4974328;28;20496;-53
2023/05/29 00:47:37;;;;;;;13.70;7.82;;;;;;;;;;4974391;28;20077;-55
2023/05/29 00:50:05;;;;;;;14.70;8.23;;;;;;;;;;4974042;28;20043;-53
2023/05/29 00:52:32;;;;;;;13.02;8.13;;;;;;;;;;4974112;28;20051;-52
2023/05/29 00:55:01;;;;;;;12.77;7.25;;;;;;;;;;4973501;28;20074;-50
2023/05/29 00:57:27;;;;;;;12.43;7.00;;;;;;;;;;4974228;28;20115;-55
2023/05/29 00:59:56;;;;;;;12.75;7.60;;;;;;;;;;4973878;28;20121;-55
2023/05/29 01:02:23;;;;;;;14.05;8.25;;;;;;;;;;4973739;28;20492;-52
2023/05/29 01:04:54;;;;;;;11.95;7.53;;;;;;;;;;4974197;28;20114;-56
2023/05/29 01:07:21;;;;;;;13.45;8.18;;;;;;;;;;4973891;28;20471;-52
2023/05/29 01:09:48;;;;;;;13.20;8.00;;;;;;;;;;4973865;28;20073;-53
2023/05/29 01:12:27;;;;;;;13.10;8.00;;;;;;;;;;4973579;28;20043;-50
2023/05/29 01:15:05;;;;;;;13.23;8.02;;;;;;;;;;4973812;28;20106;-51
2023/05/29 01:17:41;;;;;;;12.07;7.60;;;;;;;;;;4973617;28;20047;-53
2023/05/29 01:20:24;;;;;;;12.30;7.15;;;;;;;;;;4973558;28;20145;-55
2023/05/29 01:23:10;;;;;;;12.02;6.95;;;;;;;;;;4973438;28;20135;-51
2023/05/29 01:25:56;;;;;;;12.73;7.57;;;;;;;;;;4973333;28;20058;-54
2023/05/29 01:28:27;;;;;;;14.98;7.15;;;;;;;;;;4973417;28;20094;-54
2023/05/29 01:30:56;;;;;;;11.50;7.35;;;;;;;;;;4973500;28;20380;-55
2023/05/29 01:33:23;;;;;;;13.70;7.07;;;;;;;;;;4973318;28;20508;-55
2023/05/29 01:35:50;;;;;;;11.68;6.85;;;;;;;;;;4973097;28;20242;-50
2023/05/29 01:38:19;;;;;;;10.95;7.25;;;;;;;;;;4973299;28;20047;-51
2023/05/29 01:40:47;;;;;;;15.68;7.55;;;;;;;;;;4973903;28;20058;-52
2023/05/29 01:43:15;;;;;;;12.70;7.10;;;;;;;;;;4973051;28;20047;-52
2023/05/29 01:45:44;;;;;;;13.32;7.57;;;;;;;;;;4973007;28;20070;-53
2023/05/29 01:48:10;;;;;;;11.82;7.25;;;;;;;;;;4973029;28;20050;-50
2023/05/29 01:50:38;;;;;;;12.48;7.22;;;;;;;;;;4973045;28;20050;-54
2023/05/29 01:53:05;;;;;;;15.20;8.27;;;;;;;;;;4973043;28;20055;-55
2023/05/29 01:55:32;;;;;;;12.20;7.88;;;;;;;;;;4972843;28;20051;-55
2023/05/29 01:58:00;;;;;;;11.65;7.45;;;;;;;;;;4972903;28;20105;-53
2023/05/29 02:00:27;;;;;;;14.45;7.93;;;;;;;;;;4972945;28;20101;-52
2023/05/29 02:02:55;;;;;;;12.35;7.15;;;;;;;;;;4973234;28;20046;-56
2023/05/29 02:05:22;;;;;;;13.07;7.20;;;;;;;;;;4972671;28;20058;-56
2023/05/29 02:07:49;;;;;;;12.25;7.43;;;;;;;;;;4972940;28;20055;-53
2023/05/29 02:10:16;;;;;;;12.70;7.82;;;;;;;;;;4972864;28;20451;-51
2023/05/29 02:12:42;;;;;;;11.98;6.90;;;;;;;;;;4972846;28;20175;-52
2023/05/29 02:15:10;;;;;;;12.50;7.35;;;;;;;;;;4972626;28;20042;-50
2023/05/29 02:17:37;;;;;;;13.50;7.25;;;;;;;;;;4972576;28;20397;-51
2023/05/29 02:20:07;;;;;;;13.00;7.57;;;;;;;;;;4972405;28;20059;-52
2023/05/29 02:22:34;;;;;;;11.63;7.03;;;;;;;;;;4972957;28;20162;-52
2023/05/29 02:25:00;;;;;;;12.63;7.72;;;;;;;;;;4972718;28;20058;-54
2023/05/29 02:27:27;;;;;;;12.75;7.10;;;;;;;;;;4972832;28;20567;-51
2023/05/29 02:29:54;;;;;;;12.00;7.65;;;;;;;;;;4972689;28;20488;-54
2023/05/29 02:32:22;;;;;;;10.98;6.60;;;;;;;;;;4972683;28;20598;-56
2023/05/29 02:34:49;;;;;;;11.70;7.15;;;;;;;;;;4972374;28;20047;-55
2023/05/29 02:37:17;;;;;;;12.23;6.80;;;;;;;;;;4972652;28;20455;-53
2023/05/29 02:39:44;;;;;;;10.98;6.63;;;;;;;;;;4972535;28;20082;-56
2023/05/29 02:42:11;;;;;;;12.63;6.68;;;;;;;;;;4972791;28;20063;-55
2023/05/29 02:44:38;;;;;;;11.10;6.90;;;;;;;;;;4972701;28;20046;-51
2023/05/29 02:47:05;;;;;;;12.43;7.22;;;;;;;;;;4972680;28;20096;-55
2023/05/29 02:49:32;;;;;;;12.40;7.18;;;;;;;;;;4972508;28;20101;-51
2023/05/29 02:51:59;;;;;;;13.05;7.15;;;;;;;;;;4972384;28;20157;-55
2023/05/29 02:54:27;;;;;;;14.13;7.30;;;;;;;;;;4972362;28;20454;-55
2023/05/29 02:56:54;;;;;;;14.20;7.07;;;;;;;;;;4972255;28;20053;-54
2023/05/29 02:59:21;;;;;;;12.90;7.50;;;;;;;;;;4972380;28;20190;-55
2023/05/29 03:01:48;;;;;;;11.93;6.95;;;;;;;;;;4972322;28;20042;-56
2023/05/29 03:04:17;;;;;;;12.65;8.15;;;;;;;;;;4972448;28;20105;-54
2023/05/29 03:06:45;;;;;;;11.48;6.32;;;;;;;;;;4972503;28;20488;-52
2023/05/29 03:09:12;;;;;;;11.20;7.03;;;;;;;;;;4972574;28;20154;-55
2023/05/29 03:11:40;;;;;;;12.55;7.18;;;;;;;;;;4972176;28;20057;-53
2023/05/29 03:14:08;;;;;;;11.93;6.80;;;;;;;;;;4972519;28;20062;-55
2023/05/29 03:16:35;;;;;;;12.43;6.68;;;;;;;;;;4972917;28;20078;-56
2023/05/29 03:19:02;;;;;;;13.05;7.13;;;;;;;;;;4975889;28;20118;-54
2023/05/29 03:21:31;;;;;;;12.27;7.50;;;;;;;;;;4975655;28;20047;-50
2023/05/29 03:23:57;;;;;;;10.77;7.03;;;;;;;;;;4976041;28;20050;-54
2023/05/29 03:26:25;;;;;;;11.30;6.82;;;;;;;;;;4975663;28;20051;-51
2023/05/29 03:28:53;;;;;;;12.05;7.03;;;;;;;;;;4956456;29;20062;-56
2023/05/29 03:31:20;;;;;;;12.02;7.03;;;;;;;;;;4956519;28;20106;-55
2023/05/29 03:33:47;;;;;;;11.25;6.78;;;;;;;;;;4956238;29;20053;-54
2023/05/29 03:36:16;;;;;;;11.18;6.57;;;;;;;;;;4956128;29;20047;-52
2023/05/29 03:38:43;;;;;;;12.70;7.32;;;;;;;;;;4956294;29;20073;-54
2023/05/29 03:41:10;;;;;;;12.45;6.95;;;;;;;;;;4955941;28;20051;-51
2023/05/29 03:43:37;;;;;;;12.77;7.13;;;;;;;;;;4956130;29;20047;-52
2023/05/29 03:46:05;;;;;;;11.43;6.60;;;;;;;;;;4955967;29;20047;-51
2023/05/29 03:48:32;;;;;;;11.95;6.80;;;;;;;;;;4955882;29;20055;-54
2023/05/29 03:50:59;;;;;;;11.00;6.32;;;;;;;;;;4956115;28;20047;-53
2023/05/29 03:53:25;;;;;;;12.02;6.80;;;;;;;;;;4966949;28;20051;-55
2023/05/29 03:55:52;;;;;;;10.68;6.30;;;;;;;;;;4974989;28;20066;-51
2023/05/29 03:58:19;;;;;;;10.35;6.57;;;;;;;;;;4975105;28;20101;-52
2023/05/29 04:00:46;;;;;;;10.68;6.88;;;;;;;;;;4974992;28;20476;-55
2023/05/29 04:03:14;;;;;;;12.20;6.50;;;;;;;;;;4975057;28;20047;-53
2023/05/29 04:05:41;;;;;;;11.25;6.30;;;;;;;;;;4974776;28;20508;-54
2023/05/29 04:08:08;;;;;;;10.48;6.00;;;;;;;;;;4974963;28;20101;-53
2023/05/29 04:10:36;;;;;;;13.98;6.40;;;;;;;;;;4974984;28;20081;-53
2023/05/29 04:13:03;;;;;;;11.77;6.63;;;;;;;;;;4975003;28;20090;-49
2023/05/29 04:15:32;;;;;;;12.60;6.60;;;;;;;;;;4975303;28;20382;-55
2023/05/29 04:17:59;;;;;;;11.80;6.85;;;;;;;;;;4974444;28;20051;-49
2023/05/29 04:20:28;;;;;;;11.52;5.93;;;;;;;;;;4974729;28;20050;-54
2023/05/29 04:22:54;;;;;;;11.98;5.75;;;;;;;;;;4974519;28;20057;-55
2023/05/29 04:25:21;;;;;;;10.85;6.10;;;;;;;;;;4974577;28;20055;-55
2023/05/29 04:27:49;;;;;;;12.15;5.97;;;;;;;;;;4973721;28;20055;-51
2023/05/29 04:30:17;;;;;;;10.80;6.20;;;;;;;;;;4974161;28;20134;-50
2023/05/29 04:32:44;;;;;;;11.57;5.85;;;;;;;;;;4974594;28;20042;-53
2023/05/29 04:35:11;;;;;;;10.60;6.35;;;;;;;;;;4974469;28;20062;-51
2023/05/29 04:37:39;;;;;;;11.50;5.80;;;;;;;;;;4974215;28;20043;-53
2023/05/29 04:40:08;;;;;;;9.25;6.07;;;;;;;;;;4974431;28;20062;-54
2023/05/29 04:42:35;;;;;;;14.90;6.50;;;;;;;;;;4974302;28;20500;-56
2023/05/29 04:45:04;;;;;;;9.50;5.95;;;;;;;;;;4974510;28;20050;-52
2023/05/29 04:47:32;;;;;;;10.45;6.38;;;;;;;;;;4974157;28;20057;-51
2023/05/29 04:50:00;;;;;;;9.70;5.90;;;;;;;;;;4974264;28;20049;-52
2023/05/29 04:52:30;;;;;;;10.80;6.88;;;;;;;;;;4974624;28;20477;-49
2023/05/29 04:54:58;;;;;;;12.02;6.20;;;;;;;;;;4974191;28;20515;-54
2023/05/29 04:57:25;;;;;;;10.43;5.45;;;;;;;;;;4974110;28;20047;-55
2023/05/29 04:59:52;;;;;;;9.75;5.70;;;;;;;;;;4973835;28;20141;-55
2023/05/29 05:02:19;;;;;;;10.95;6.30;;;;;;;;;;4974097;28;20464;-56
2023/05/29 05:04:46;;;;;;;10.98;6.32;;;;;;;;;;4973972;28;20101;-56
2023/05/29 05:07:15;;;;;;;9.48;5.68;;;;;;;;;;4973962;28;20050;-49
2023/05/29 05:09:42;;;;;;;10.93;5.75;;;;;;;;;;4973616;28;20050;-51
2023/05/29 05:12:10;;;;;;;11.48;6.32;;;;;;;;;;4973562;28;20054;-49
2023/05/29 05:14:37;;;;;;;19.98;7.15;;;;;;;;;;4973581;28;20107;-49
2023/05/29 05:17:04;;;;;;;10.27;6.30;;;;;;;;;;4973718;28;20483;-52
2023/05/29 05:19:31;;;;;;;12.38;6.07;;;;;;;;;;4973263;28;20113;-49
2023/05/29 05:21:58;;;;;;;11.32;6.15;;;;;;;;;;4973244;28;20480;-52
2023/05/29 05:24:25;;;;;;;10.50;6.18;;;;;;;;;;4973512;28;20047;-50
2023/05/29 05:26:51;;;;;;;11.50;5.72;;;;;;;;;;4973189;28;20054;-49
2023/05/29 05:29:20;;;;;;;12.05;6.10;;;;;;;;;;4972960;28;20098;-51
2023/05/29 05:31:47;;;;;;;8.95;5.90;;;;;;;;;;4973060;28;20046;-49
2023/05/29 05:34:14;;;;;;;11.27;6.88;;;;;;;;;;4973385;28;20047;-49
2023/05/29 05:36:41;;;;;;;10.48;6.00;;;;;;;;;;4972805;28;20046;-54
2023/05/29 05:39:07;;;;;;;12.52;6.20;;;;;;;;;;4972654;28;20113;-50
2023/05/29 05:41:34;;;;;;;10.57;5.63;;;;;;;;;;4972953;28;20114;-50
2023/05/29 05:44:01;;;;;;;10.57;6.10;;;;;;;;;;4973327;28;20050;-50
2023/05/29 05:46:29;;;;;;;11.10;6.18;;;;;;;;;;4972992;28;20054;-49
2023/05/29 05:48:57;;;;;;;9.43;5.75;;;;;;;;;;4972990;28;20109;-53
2023/05/29 05:51:24;;;;;;;9.55;5.78;;;;;;;;;;4972698;28;20047;-50
2023/05/29 05:53:51;;;;;;;8.55;5.20;;;;;;;;;;4972910;28;20047;-50
2023/05/29 05:56:18;;;;;;;10.68;6.18;;;;;;;;;;4972894;28;20101;-50
2023/05/29 05:58:44;;;;;;;11.75;5.65;;;;;;;;;;4972503;28;20110;-50
2023/05/29 06:01:11;;;;;;;10.20;6.00;;;;;;;;;;4972286;28;20046;-52
2023/05/29 06:03:39;;;;;;;9.18;5.35;;;;;;;;;;4972747;28;20492;-51
2023/05/29 06:06:07;;;;;;;10.52;5.82;;;;;;;;;;4973096;28;20058;-50
2023/05/29 06:08:34;;;;;;;10.00;6.18;;;;;;;;;;4972517;28;20047;-51
2023/05/29 06:11:01;;;;;;;9.77;5.50;;;;;;;;;;4972736;28;20055;-49
2023/05/29 06:13:27;;;;;;;11.15;5.75;;;;;;;;;;4972629;28;20097;-52
2023/05/29 06:15:54;;;;;;;13.82;6.65;;;;;;;;;;4972776;28;20047;-52
2023/05/29 06:18:21;;;;;;;10.00;5.38;;;;;;;;;;4972683;28;20138;-50
2023/05/29 06:20:50;;;;;;;11.45;5.63;;;;;;;;;;4972978;28;20500;-50
2023/05/29 06:23:17;;;;;;;9.65;5.60;;;;;;;;;;4972350;28;20101;-54
2023/05/29 06:25:44;;;;;;;8.70;5.00;;;;;;;;;;4973182;28;20520;-50
2023/05/29 06:28:10;;;;;;;9.48;5.43;;;;;;;;;;4972651;28;20522;-52
2023/05/29 06:30:37;;;;;;;11.20;5.63;;;;;;;;;;4972627;28;20102;-50
2023/05/29 06:33:04;;;;;;;11.63;5.93;;;;;;;;;;4972483;28;20098;-50
2023/05/29 06:35:31;;;;;;;9.63;5.55;;;;;;;;;;4972682;28;20054;-50
2023/05/29 06:37:59;;;;;;;9.07;5.55;;;;;;;;;;4972295;28;20047;-53
2023/05/29 06:40:26;;;;;;;10.07;6.07;;;;;;;;;;4972379;28;20106;-50
2023/05/29 06:42:53;;;;;;;10.73;6.00;;;;;;;;;;4972510;28;20101;-53
2023/05/29 06:45:19;;;;;;;11.35;5.40;;;;;;;;;;4972411;28;20047;-52
2023/05/29 06:47:46;;;;;;;11.23;5.75;;;;;;;;;;4972747;28;20133;-52
2023/05/29 06:50:13;;;;;;;10.35;5.47;;;;;;;;;;4972266;28;20472;-52
2023/05/29 06:52:40;;;;;;;10.48;6.13;;;;;;;;;;4975370;28;20076;-52
2023/05/29 06:55:09;;;;;;;11.05;5.45;;;;;;;;;;4975791;28;20054;-50
2023/05/29 06:57:36;;;;;;;9.57;6.07;;;;;;;;;;4976069;28;20507;-51
2023/05/29 07:00:05;;;;;;;9.30;5.97;;;;;;;;;;4975982;28;20487;-53
2023/05/29 07:02:32;;;;;;;9.30;5.95;;;;;;;;;;4976027;28;20531;-49
2023/05/29 07:04:59;;;;;;;9.63;6.18;;;;;;;;;;4976032;28;20113;-50
2023/05/29 07:07:26;;;;;;;10.80;6.25;;;;;;;;;;4975338;28;20058;-52
2023/05/29 07:09:53;;;;;;;11.40;6.28;;;;;;;;;;4975603;28;20055;-50
2023/05/29 07:12:22;;;;;;;10.48;5.97;;;;;;;;;;4975168;28;20468;-53
2023/05/29 07:14:49;;;;;;;10.07;6.75;;;;;;;;;;4975892;28;20567;-52
2023/05/29 07:17:16;;;;;;;10.55;6.05;;;;;;;;;;4975351;28;20097;-52
2023/05/29 07:19:42;;;;;;;10.40;6.43;;;;;;;;;;4975391;28;20054;-51
2023/05/29 07:22:10;;;;;;;9.65;5.88;;;;;;;;;;4975673;28;20042;-54
2023/05/29 07:24:36;;;;;;;10.00;6.03;;;;;;;;;;4975429;28;20093;-50
2023/05/29 07:27:03;;;;;;;8.80;5.60;;;;;;;;;;4974457;28;20357;-51
2023/05/29 07:29:31;;;;;;;9.02;5.75;;;;;;;;;;4978049;28;20055;-50
2023/05/29 07:31:58;;;;;;;11.35;5.70;;;;;;;;;;4975229;28;20043;-50
2023/05/29 07:34:25;;;;;;;11.48;5.90;;;;;;;;;;4975221;28;20105;-54
2023/05/29 07:37:00;;;;;;;13.18;6.00;;;;;;;;;;4974948;28;20090;-52
2023/05/29 07:39:27;;;;;;;9.55;5.50;;;;;;;;;;4974799;28;20051;-49
2023/05/29 07:41:54;;;;;;;8.57;5.63;;;;;;;;;;4975191;28;20074;-52
2023/05/29 07:44:21;;;;;;;11.50;5.40;;;;;;;;;;4974874;28;20055;-51
2023/05/29 07:46:49;;;;;;;10.18;6.00;;;;;;;;;;4975044;28;20046;-51
2023/05/29 07:49:16;;;;;;;9.48;5.97;;;;;;;;;;4974597;28;20103;-51
2023/05/29 07:51:43;;;;;;;9.82;5.90;;;;;;;;;;4973982;28;20046;-53
2023/05/29 07:54:10;;;;;;;10.75;5.60;;;;;;;;;;4974557;28;20046;-51
2023/05/29 07:56:37;;;;;;;11.25;6.13;;;;;;;;;;4974713;28;20088;-50
2023/05/29 07:59:04;;;;;;;10.65;6.05;;;;;;;;;;4974328;28;20054;-49
2023/05/29 08:01:31;;;;;;;12.32;5.72;;;;;;;;;;4985314;28;20132;-49
2023/05/29 08:03:59;;;;;;;10.35;5.38;;;;;;;;;;4976355;28;20096;-54
2023/05/29 08:06:26;;;;;;;9.20;5.70;;;;;;;;;;4974900;28;20051;-51
2023/05/29 08:08:53;;;;;;;10.40;6.45;;;;;;;;;;4974517;28;20464;-49
2023/05/29 08:11:20;;;;;;;9.77;5.93;;;;;;;;;;4974606;28;20086;-52
2023/05/29 08:13:46;;;;;;;11.80;6.65;;;;;;;;;;4974561;28;20492;-53
2023/05/29 08:16:16;;;;;;;10.45;6.07;;;;;;;;;;4974503;28;20523;-48
2023/05/29 08:18:43;;;;;;;10.55;6.35;;;;;;;;;;4974513;28;20578;-52
2023/05/29 08:21:11;;;;;;;10.25;5.50;;;;;;;;;;4974321;28;20389;-51
2023/05/29 08:23:39;;;;;;;9.93;6.20;;;;;;;;;;4974543;28;20047;-50
2023/05/29 08:26:05;;;;;;;9.32;5.57;;;;;;;;;;4974245;28;20047;-52
2023/05/29 08:28:32;;;;;;;11.25;6.05;;;;;;;;;;4973651;28;20190;-51
2023/05/29 08:30:59;;;;;;;10.40;6.28;;;;;;;;;;4974040;28;20051;-48
2023/05/29 08:33:26;;;;;;;10.55;5.95;;;;;;;;;;4973658;28;20086;-50
2023/05/29 08:35:53;;;;;;;9.85;6.18;;;;;;;;;;4973243;28;20078;-50
2023/05/29 08:38:21;;;;;;;9.75;6.20;;;;;;;;;;4973837;28;20062;-55
2023/05/29 08:40:49;;;;;;;9.40;5.45;;;;;;;;;;4974144;28;20050;-53
2023/05/29 08:43:20;;;;;;;9.60;5.80;;;;;;;;;;4974010;28;20078;-52
2023/05/29 08:45:51;;;;;;;8.57;5.70;;;;;;;;;;4974781;28;20500;-62
2023/05/29 08:48:19;;;;;;;9.25;5.38;;;;;;;;;;4973378;28;20122;-63
2023/05/29 08:50:47;;;;;;;10.52;6.70;;;;;;;;;;4973906;28;20139;-53
2023/05/29 08:53:15;;;;;;;10.80;5.57;;;;;;;;;;4973594;28;20086;-58
2023/05/29 08:55:43;;;;;;;10.73;5.43;;;;;;;;;;4974618;28;20046;-55
2023/05/29 08:58:12;;;;;;;10.23;6.28;;;;;;;;;;4972143;28;20053;-52
2023/05/29 09:00:40;;;;;;;11.73;6.25;;;;;;;;;;4972586;28;20051;-50
2023/05/29 09:03:07;;;;;;;15.52;10.18;;;;;;;;;;4972199;28;20270;-51
2023/05/29 09:05:39;;;;;;;10.00;6.15;;;;;;;;;;4970761;28;20085;-56
2023/05/29 09:08:07;;;;;;;9.25;5.90;;;;;;;;;;4971617;28;20066;-54
2023/05/29 09:10:33;;;;;;;10.45;6.93;;;;;;;;;;4971387;28;20196;-51
2023/05/29 09:13:02;;;;;;;10.95;6.65;;;;;;;;;;4971750;28;20054;-52
2023/05/29 09:15:29;;;;;;;9.00;5.70;;;;;;;;;;4971108;28;20054;-54
2023/05/29 09:17:58;;;;;;;11.57;5.72;;;;;;;;;;4971538;28;20109;-53
2023/05/29 09:20:27;;;;;;;10.75;6.15;;;;;;;;;;4966874;28;20046;-53
2023/05/29 09:22:55;;;;;;;10.88;6.07;;;;;;;;;;4971420;28;20137;-54
2023/05/29 09:25:24;;;;;;;9.65;5.60;;;;;;;;;;4971523;28;20057;-53
2023/05/29 09:27:58;;;;;;;8.37;4.90;;;;;;;;;;4971211;28;20050;-52
2023/05/29 09:30:41;;;;;;;8.82;5.60;;;;;;;;;;4971371;28;20081;-53
2023/05/29 09:33:10;;;;;;;11.20;5.97;;;;;;;;;;4970534;28;20047;-51
2023/05/29 09:35:38;;;;;;;9.63;6.10;;;;;;;;;;4969960;28;20046;-55
2023/05/29 09:38:06;;;;;;;9.45;5.72;;;;;;;;;;4971403;28;20055;-52
2023/05/29 09:40:33;;;;;;;10.73;5.38;;;;;;;;;;4971287;28;20078;-51
2023/05/29 09:43:07;;;;;;;9.85;5.72;;;;;;;;;;4971183;28;20101;-49
2023/05/29 09:45:34;;;;;;;11.07;6.03;;;;;;;;;;4968615;28;20117;-50
2023/05/29 09:48:02;;;;;;;8.48;5.10;;;;;;;;;;4971434;28;20069;-52
2023/05/29 09:50:30;;;;;;;8.63;5.25;;;;;;;;;;4970930;28;20051;-53
2023/05/29 09:52:58;;;;;;;9.88;5.10;;;;;;;;;;4971352;28;20082;-49
2023/05/29 09:55:26;;;;;;;7.97;4.85;;;;;;;;;;4971400;28;20736;-52
2023/05/29 09:57:56;;;;;;;8.70;4.45;;;;;;;;;;4971026;28;20504;-48
2023/05/29 10:00:23;;;;;;;8.35;4.72;;;;;;;;;;4970911;28;20050;-53
2023/05/29 10:02:50;;;;;;;8.30;4.82;;;;;;;;;;4971167;28;20126;-49
2023/05/29 10:05:18;;;;;;;10.43;5.45;;;;;;;;;;4969803;28;20575;-50
2023/05/29 10:07:48;;;;;;;8.55;4.95;;;;;;;;;;4981614;28;20109;-49
2023/05/29 10:10:15;;;;;;;10.30;5.30;;;;;;;;;;4990123;28;20795;-54
2023/05/29 10:12:46;;;;;;;9.60;5.28;;;;;;;;;;4972111;28;20552;-54
2023/05/29 10:15:14;;;;;;;9.25;5.13;;;;;;;;;;4971114;28;20043;-53
2023/05/29 10:17:50;;;;;;;8.02;5.22;;;;;;;;;;4971198;28;20599;-53
2023/05/29 10:20:20;;;;;;;10.20;5.82;;;;;;;;;;4970232;28;20043;-54
2023/05/29 10:22:50;;;;;;;8.80;5.28;;;;;;;;;;4970801;28;20109;-55
2023/05/29 10:25:19;;;;;;;8.88;4.93;;;;;;;;;;4990552;28;20117;-55
2023/05/29 10:27:46;;;;;;;9.75;4.97;;;;;;;;;;4994438;28;20133;-50
2023/05/29 10:30:24;;;;;;;7.40;4.47;;;;;;;;;;4990300;28;20312;-54
2023/05/29 10:33:05;;;;;;;43.22;19.88;;;;;;;;;;4974881;28;20050;-55
2023/05/29 10:35:43;;;;;;;11.07;6.25;;;;;;;;;;4974225;28;20109;-56
2023/05/29 10:38:13;;;;;;;11.95;5.70;;;;;;;;;;4973910;28;20540;-61
2023/05/29 10:40:40;;;;;;;11.07;5.32;;;;;;;;;;4974496;28;20133;-53
2023/05/29 10:43:10;;;;;;;9.90;4.90;;;;;;;;;;4974730;28;20054;-54
2023/05/29 10:45:51;;;;;;;8.27;4.90;;;;;;;;;;4974365;28;20145;-53
2023/05/29 10:48:54;;;;;;;9.35;5.07;;;;;;;;;;4974297;28;20122;-64
2023/05/29 10:51:31;;;;;;;10.18;4.70;;;;;;;;;;4895392;29;20100;-56
2023/05/29 10:53:58;;;;;;;7.20;4.57;;;;;;;;;;4895581;29;20152;-55
2023/05/29 10:56:29;;;;;;;7.05;4.20;;;;;;;;;;4936242;28;20653;-52
2023/05/29 10:59:00;;;;;;;10.90;5.13;;;;;;;;;;4978301;28;20050;-61
2023/05/29 11:01:29;;;;;;;8.27;4.18;;;;;;;;;;4993726;28;20050;-54
2023/05/29 11:04:28;;;;;;;216.00;105.20;;;;;;;;;;4989515;28;20401;-61
2023/05/29 11:06:56;;;;;;;104.15;51.38;;;;;;;;;;4993205;28;20060;-62
2023/05/29 11:09:30;;;;;;;44.20;19.15;;;;;;;;;;4975966;28;20078;-54
2023/05/29 11:12:25;;;;;;;49.03;25.23;;;;;;;;;;4970976;28;20130;-52
2023/05/29 11:14:56;;;;;;;21.98;11.73;;;;;;;;;;4974269;28;20145;-50
2023/05/29 11:17:33;;;;;;;23.20;10.13;;;;;;;;;;4974042;28;20054;-54
2023/05/29 11:20:05;;;;;;;15.15;8.80;;;;;;;;;;4973289;28;20563;-50
2023/05/29 11:22:52;;;;;;;13.88;7.95;;;;;;;;;;4973663;28;20468;-54
2023/05/29 11:25:21;;;;;;;10.90;6.13;;;;;;;;;;4988877;28;20591;-55
2023/05/29 11:27:48;;;;;;;8.38;5.07;;;;;;;;;;4990703;28;20101;-52
2023/05/29 11:30:16;;;;;;;8.57;5.22;;;;;;;;;;4973684;28;20054;-51
2023/05/29 11:32:46;;;;;;;8.93;5.93;;;;;;;;;;4973919;28;20057;-53
2023/05/29 11:35:14;;;;;;;7.20;4.70;;;;;;;;;;4974033;28;20082;-50
2023/05/29 11:37:47;;;;;;;9.27;5.40;;;;;;;;;;4973563;28;20051;-50
2023/05/29 11:40:14;;;;;;;6.55;4.20;;;;;;;;;;4988612;28;20058;-63
2023/05/29 11:42:45;;;;;;;7.15;4.43;;;;;;;;;;4979693;28;20109;-52
2023/05/29 11:45:16;;;;;;;9.60;5.88;;;;;;;;;;4992592;28;20078;-57
2023/05/29 11:47:53;;;;;;;7.25;4.57;;;;;;;;;;4976028;28;20047;-50
2023/05/29 11:50:21;;;;;;;9.07;4.88;;;;;;;;;;4969128;28;20101;-53
2023/05/29 11:52:50;;;;;;;10.20;5.07;;;;;;;;;;4972221;28;20053;-52
2023/05/29 11:55:17;;;;;;;7.97;5.00;;;;;;;;;;4968819;28;20051;-50
2023/05/29 11:57:44;;;;;;;6.82;4.90;;;;;;;;;;4980217;28;20447;-51
2023/05/29 12:00:14;;;;;;;10.50;5.53;;;;;;;;;;4992230;28;20389;-53
2023/05/29 12:02:42;;;;;;;8.32;4.70;;;;;;;;;;4986815;28;20126;-54
2023/05/29 12:05:12;;;;;;;8.15;4.80;;;;;;;;;;4972889;28;20069;-52
2023/05/29 12:07:39;;;;;;;8.85;4.90;;;;;;;;;;4953452;29;20086;-52
2023/05/29 12:10:15;;;;;;;6.68;4.15;;;;;;;;;;4970667;28;20582;-52
2023/05/29 12:12:42;;;;;;;8.52;4.35;;;;;;;;;;4992308;28;20058;-51
2023/05/29 12:15:10;;;;;;;9.80;5.35;;;;;;;;;;4978453;28;20090;-53
2023/05/29 12:17:37;;;;;;;7.50;4.60;;;;;;;;;;4983797;28;20090;-51
2023/05/29 12:20:08;;;;;;;9.00;4.90;;;;;;;;;;4973944;28;20105;-55
2023/05/29 12:22:37;;;;;;;9.60;5.20;;;;;;;;;;4991984;28;20050;-53
2023/05/29 12:25:08;;;;;;;7.90;5.10;;;;;;;;;;4992029;28;20046;-51
2023/05/29 12:27:42;;;;;;;8.88;4.75;;;;;;;;;;4991896;28;20125;-52
2023/05/29 12:30:11;;;;;;;9.63;5.10;;;;;;;;;;4991543;28;20058;-52
2023/05/29 12:32:38;;;;;;;7.97;4.60;;;;;;;;;;4987246;28;20126;-53
2023/05/29 12:35:17;;;;;;;7.10;4.68;;;;;;;;;;4972656;28;20054;-51
2023/05/29 12:37:46;;;;;;;7.40;4.80;;;;;;;;;;4972586;28;20485;-53
2023/05/29 12:40:17;;;;;;;7.97;5.03;;;;;;;;;;4971511;28;20050;-50
2023/05/29 12:42:46;;;;;;;7.43;4.80;;;;;;;;;;4980101;28;20374;-53
2023/05/29 12:45:12;;;;;;;7.28;4.75;;;;;;;;;;4975498;28;20043;-53
2023/05/29 12:47:45;;;;;;;8.50;4.68;;;;;;;;;;4988134;28;20054;-49
2023/05/29 12:50:26;;;;;;;8.65;4.82;;;;;;;;;;4985327;28;20115;-51
2023/05/29 12:52:57;;;;;;;6.65;4.20;;;;;;;;;;4960006;28;20485;-50
2023/05/29 12:55:24;;;;;;;12.10;4.43;;;;;;;;;;4952748;29;20047;-49
2023/05/29 12:57:53;;;;;;;6.78;4.10;;;;;;;;;;4952983;29;20414;-53
2023/05/29 13:00:21;;;;;;;7.55;4.07;;;;;;;;;;4952273;28;20524;-53
2023/05/29 13:02:48;;;;;;;9.02;4.63;;;;;;;;;;4969466;28;20051;-50
2023/05/29 13:05:18;;;;;;;8.55;4.50;;;;;;;;;;4971163;28;20487;-54
2023/05/29 13:07:46;;;;;;;8.07;4.55;;;;;;;;;;4983900;28;20080;-57
2023/05/29 13:10:12;;;;;;;6.43;4.30;;;;;;;;;;4978885;28;20113;-51
2023/05/29 13:12:39;;;;;;;7.75;4.50;;;;;;;;;;4986147;28;20046;-54
2023/05/29 13:15:08;;;;;;;7.65;3.95;;;;;;;;;;4989264;28;20081;-52
2023/05/29 13:17:35;;;;;;;7.35;3.80;;;;;;;;;;4971446;28;20054;-53
2023/05/29 13:20:06;;;;;;;7.32;4.20;;;;;;;;;;4971503;28;20492;-54
2023/05/29 13:22:32;;;;;;;6.97;4.35;;;;;;;;;;4971359;28;20149;-52
2023/05/29 13:25:00;;;;;;;5.78;3.97;;;;;;;;;;4971495;28;20050;-53
2023/05/29 13:27:27;;;;;;;7.65;4.50;;;;;;;;;;4974803;28;20050;-49
2023/05/29 13:29:54;;;;;;;6.38;4.28;;;;;;;;;;4979909;28;20065;-54
2023/05/29 13:32:22;;;;;;;7.20;4.63;;;;;;;;;;4971498;28;20054;-52
2023/05/29 13:34:49;;;;;;;7.07;4.38;;;;;;;;;;4971165;28;20054;-53
2023/05/29 13:37:16;;;;;;;8.23;4.63;;;;;;;;;;4971264;28;20202;-57
2023/05/29 13:39:43;;;;;;;7.18;4.03;;;;;;;;;;4970926;28;20051;-52
2023/05/29 13:42:10;;;;;;;6.88;4.40;;;;;;;;;;4971062;28;20098;-52
2023/05/29 13:44:38;;;;;;;8.70;4.75;;;;;;;;;;4970808;28;20048;-52
2023/05/29 13:47:06;;;;;;;7.53;4.45;;;;;;;;;;4971047;28;20070;-50
2023/05/29 13:49:35;;;;;;;6.53;4.57;;;;;;;;;;4970684;28;20059;-50
2023/05/29 13:52:01;;;;;;;7.00;4.30;;;;;;;;;;4970914;28;20117;-49
2023/05/29 13:54:29;;;;;;;7.03;4.03;;;;;;;;;;4971111;28;20129;-51
2023/05/29 13:56:58;;;;;;;7.45;4.45;;;;;;;;;;4971262;28;20169;-55
2023/05/29 13:59:24;;;;;;;6.35;4.28;;;;;;;;;;4970011;28;20049;-56
2023/05/29 14:01:51;;;;;;;7.07;4.63;;;;;;;;;;4968886;28;20055;-53
2023/05/29 14:04:18;;;;;;;7.60;5.07;;;;;;;;;;4976935;28;20043;-54
2023/05/29 14:06:46;;;;;;;7.78;4.30;;;;;;;;;;4990211;28;20108;-57
2023/05/29 14:09:14;;;;;;;8.15;4.35;;;;;;;;;;4990476;28;20483;-55
2023/05/29 14:11:41;;;;;;;7.05;4.57;;;;;;;;;;4990339;28;20046;-53
2023/05/29 14:14:08;;;;;;;6.63;4.30;;;;;;;;;;4990580;28;20518;-53
2023/05/29 14:16:35;;;;;;;7.60;4.60;;;;;;;;;;4990368;28;20053;-50
2023/05/29 14:19:01;;;;;;;5.97;4.07;;;;;;;;;;4989992;28;20467;-54
2023/05/29 14:21:28;;;;;;;6.53;4.40;;;;;;;;;;4989979;28;20054;-50
2023/05/29 14:23:56;;;;;;;7.30;4.38;;;;;;;;;;4990019;28;20047;-50
2023/05/29 14:26:23;;;;;;;7.68;4.60;;;;;;;;;;4990502;28;20054;-50
2023/05/29 14:28:50;;;;;;;7.68;4.20;;;;;;;;;;4990030;28;20109;-53
2023/05/29 14:31:17;;;;;;;7.78;4.68;;;;;;;;;;4990117;28;20050;-50
2023/05/29 14:33:43;;;;;;;7.45;3.95;;;;;;;;;;4983877;28;20047;-52
2023/05/29 14:36:10;;;;;;;6.65;4.40;;;;;;;;;;4970847;28;20594;-51
2023/05/29 14:38:37;;;;;;;7.18;4.63;;;;;;;;;;4970498;28;20134;-50
2023/05/29 14:41:06;;;;;;;8.23;4.68;;;;;;;;;;4970594;28;20094;-52
2023/05/29 14:43:33;;;;;;;8.05;4.47;;;;;;;;;;4970483;28;20449;-51